createdAt,value
2019-03-28T00:00:59.407Z,8.20
2019-03-28T00:03:31.312Z,8.20
2019-03-28T00:05:58.823Z,8.20
2019-03-28T00:08:26.399Z,8.30
2019-03-28T00:10:58.707Z,8.20
2019-03-28T00:13:28.173Z,8.20
2019-03-28T00:15:56.101Z,8.20
2019-03-28T00:18:23.728Z,8.10
2019-03-28T00:20:51.632Z,8.10
2019-03-28T00:23:35.172Z,8.20
2019-03-28T00:26:08.806Z,8.20
2019-03-28T00:28:37.956Z,8.10
2019-03-28T00:31:05.707Z,8.10
2019-03-28T00:33:33.254Z,8.10
2019-03-28T00:36:01.133Z,8.10
2019-03-28T00:38:28.788Z,8.10
2019-03-28T00:40:57.212Z,8.00
2019-03-28T00:43:25.643Z,8.00
2019-03-28T00:45:53.539Z,8.00
2019-03-28T00:48:21.203Z,8.00
2019-03-28T00:50:48.885Z,7.90
2019-03-28T00:53:16.554Z,7.90
2019-03-28T00:55:44.529Z,8.00
2019-03-28T00:58:12.405Z,7.90
2019-03-28T01:00:41.089Z,8.00
2019-03-28T01:03:09.984Z,8.00
2019-03-28T01:05:38.059Z,7.90
2019-03-28T01:08:08.512Z,7.90
2019-03-28T01:10:39.151Z,7.90
2019-03-28T01:13:06.812Z,7.90
2019-03-28T01:15:37.515Z,7.90
2019-03-28T01:18:05.239Z,8.00
2019-03-28T01:20:33.647Z,7.90
2019-03-28T01:23:01.251Z,7.90
2019-03-28T01:25:29.236Z,7.90
2019-03-28T01:27:57.122Z,8.00
2019-03-28T01:30:24.791Z,8.00
2019-03-28T01:32:53.198Z,8.00
2019-03-28T01:35:22.332Z,7.90
2019-03-28T01:37:50.977Z,7.90
2019-03-28T01:40:21.310Z,7.90
2019-03-28T01:42:51.870Z,7.90
2019-03-28T01:45:20.875Z,7.90
2019-03-28T01:47:48.923Z,7.90
2019-03-28T01:50:23.856Z,7.90
2019-03-28T01:52:52.006Z,8.00
2019-03-28T01:55:19.708Z,8.00
2019-03-28T01:57:53.055Z,7.90
2019-03-28T02:00:23.011Z,7.90
2019-03-28T02:02:50.683Z,7.90
2019-03-28T02:05:20.291Z,7.90
2019-03-28T02:07:52.438Z,7.90
2019-03-28T02:10:20.246Z,7.90
2019-03-28T02:13:10.504Z,7.90
2019-03-28T02:15:38.656Z,8.00
2019-03-28T02:18:13.688Z,8.00
2019-03-28T02:20:43.507Z,8.00
2019-03-28T02:23:11.232Z,8.00
2019-03-28T02:25:38.751Z,8.10
2019-03-28T02:28:06.316Z,8.00
2019-03-28T02:30:34.355Z,8.00
2019-03-28T02:33:02.040Z,8.00
2019-03-28T02:35:29.772Z,8.00
2019-03-28T02:37:57.602Z,8.00
2019-03-28T02:40:25.389Z,7.90
2019-03-28T02:42:53.546Z,7.90
2019-03-28T02:45:21.340Z,7.90
2019-03-28T02:47:48.963Z,7.90
2019-03-28T02:50:16.974Z,7.90
2019-03-28T02:52:44.716Z,7.90
2019-03-28T02:55:12.458Z,7.90
2019-03-28T02:57:42.267Z,7.90
2019-03-28T03:00:10.348Z,7.90
2019-03-28T03:02:43.732Z,7.90
2019-03-28T03:05:11.554Z,7.80
2019-03-28T03:07:40.005Z,7.80
2019-03-28T03:10:08.268Z,7.90
2019-03-28T03:12:35.837Z,7.80
2019-03-28T03:15:04.110Z,7.80
2019-03-28T03:17:31.765Z,7.80
2019-03-28T03:20:00.531Z,7.90
2019-03-28T03:22:28.752Z,7.90
2019-03-28T03:24:56.878Z,7.90
2019-03-28T03:27:24.740Z,7.90
2019-03-28T03:29:52.529Z,7.90
2019-03-28T03:32:20.400Z,7.90
2019-03-28T03:34:48.437Z,7.90
2019-03-28T03:37:16.160Z,7.90
2019-03-28T03:39:43.808Z,7.90
2019-03-28T03:42:14.008Z,8.00
2019-03-28T03:44:42.125Z,8.00
2019-03-28T03:47:10.565Z,7.90
2019-03-28T03:49:38.247Z,8.00
2019-03-28T03:52:06.137Z,8.00
2019-03-28T03:54:34.664Z,8.00
2019-03-28T03:57:02.288Z,8.00
2019-03-28T03:59:29.839Z,7.90
2019-03-28T04:01:57.406Z,7.90
2019-03-28T04:04:25.409Z,7.90
2019-03-28T04:06:53.319Z,7.90
2019-03-28T04:09:20.859Z,7.90
2019-03-28T04:11:48.933Z,7.90
2019-03-28T04:14:16.627Z,7.90
2019-03-28T04:16:44.311Z,7.90
2019-03-28T04:19:12.228Z,7.90
2019-03-28T04:21:39.968Z,7.90
2019-03-28T04:24:07.637Z,7.90
2019-03-28T04:26:35.332Z,7.90
2019-03-28T04:29:03.109Z,7.90
2019-03-28T04:31:30.769Z,7.90
2019-03-28T04:33:58.780Z,7.90
2019-03-28T04:36:26.745Z,7.90
2019-03-28T04:38:54.383Z,7.90
2019-03-28T04:41:21.962Z,8.10
2019-03-28T04:43:49.526Z,8.00
2019-03-28T04:46:17.431Z,8.00
2019-03-28T04:48:45.469Z,7.90
2019-03-28T04:51:13.107Z,7.90
2019-03-28T04:53:40.690Z,7.90
2019-03-28T04:56:08.578Z,7.90
2019-03-28T04:58:44.267Z,7.90
2019-03-28T05:01:06.170Z,7.90
2019-03-28T05:03:34.867Z,7.90
2019-03-28T05:06:02.645Z,7.90
2019-03-28T05:08:30.298Z,7.90
2019-03-28T05:10:58.349Z,8.00
2019-03-28T05:13:26.084Z,8.00
2019-03-28T05:15:54.261Z,8.00
2019-03-28T05:18:21.887Z,8.00
2019-03-28T05:20:49.494Z,8.00
2019-03-28T05:23:17.178Z,8.00
2019-03-28T05:25:53.138Z,8.00
2019-03-28T05:28:21.423Z,8.00
2019-03-28T05:30:49.066Z,8.00
2019-03-28T05:33:17.375Z,8.00
2019-03-28T05:35:45.722Z,8.00
2019-03-28T05:38:13.403Z,8.10
2019-03-28T05:40:41.295Z,8.20
2019-03-28T05:43:08.935Z,8.10
2019-03-28T05:45:36.584Z,8.10
2019-03-28T05:48:04.361Z,8.10
2019-03-28T05:50:32.592Z,8.00
2019-03-28T05:53:00.201Z,8.00
2019-03-28T05:55:28.379Z,8.10
2019-03-28T05:57:56.189Z,8.10
2019-03-28T06:00:23.866Z,8.10
2019-03-28T06:02:51.418Z,8.10
2019-03-28T06:05:19.040Z,8.10
2019-03-28T06:07:47.160Z,8.10
2019-03-28T06:10:16.366Z,8.10
2019-03-28T06:12:44.390Z,8.10
2019-03-28T06:15:12.356Z,8.20
2019-03-28T06:17:40.553Z,8.20
2019-03-28T06:20:09.538Z,8.30
2019-03-28T06:22:37.488Z,8.30
2019-03-28T06:25:06.053Z,8.30
2019-03-28T06:27:34.167Z,8.30
2019-03-28T06:30:02.564Z,8.30
2019-03-28T06:32:42.269Z,8.30
2019-03-28T06:35:00.673Z,8.30
2019-03-28T06:37:28.753Z,8.30
2019-03-28T06:39:56.658Z,8.30
2019-03-28T06:42:24.695Z,8.40
2019-03-28T06:44:52.373Z,8.30
2019-03-28T06:47:21.231Z,8.30
2019-03-28T06:49:49.368Z,8.30
2019-03-28T06:52:17.052Z,8.40
2019-03-28T06:54:44.980Z,8.40
2019-03-28T06:57:13.023Z,8.40
2019-03-28T06:59:40.994Z,8.40
2019-03-28T07:02:08.954Z,8.40
2019-03-28T07:04:36.859Z,8.40
2019-03-28T07:07:04.819Z,8.50
2019-03-28T07:09:33.548Z,8.50
2019-03-28T07:12:01.489Z,8.50
2019-03-28T07:14:29.361Z,8.50
2019-03-28T07:16:57.360Z,8.60
2019-03-28T07:19:25.532Z,8.60
2019-03-28T07:21:53.143Z,8.60
2019-03-28T07:24:21.095Z,8.70
2019-03-28T07:26:48.797Z,8.70
2019-03-28T07:29:16.445Z,8.70
2019-03-28T07:31:44.563Z,8.80
2019-03-28T07:34:13.535Z,8.80
2019-03-28T07:36:41.479Z,8.90
2019-03-28T07:39:09.296Z,8.90
2019-03-28T07:41:37.036Z,8.90
2019-03-28T07:44:04.963Z,9.00
2019-03-28T07:46:32.860Z,9.00
2019-03-28T07:49:00.660Z,8.90
2019-03-28T07:51:28.325Z,8.90
2019-03-28T07:53:55.982Z,8.90
2019-03-28T07:56:23.615Z,9.00
2019-03-28T07:58:54.210Z,9.00
2019-03-28T08:01:21.838Z,8.90
2019-03-28T08:03:49.642Z,9.00
2019-03-28T08:06:17.290Z,9.00
2019-03-28T08:08:45.059Z,9.00
2019-03-28T08:11:13.112Z,8.90
2019-03-28T08:13:40.811Z,8.90
2019-03-28T08:16:08.444Z,9.00
2019-03-28T08:18:36.195Z,9.00
2019-03-28T08:21:03.871Z,9.00
2019-03-28T08:23:34.919Z,9.10
2019-03-28T08:26:01.114Z,9.00
2019-03-28T08:28:29.397Z,9.00
2019-03-28T08:30:57.520Z,9.10
2019-03-28T08:33:26.479Z,9.10
2019-03-28T08:35:55.839Z,9.10
2019-03-28T08:38:25.873Z,9.10
2019-03-28T08:40:53.854Z,9.10
2019-03-28T08:43:21.451Z,9.10
2019-03-28T08:45:49.448Z,9.00
2019-03-28T08:48:17.172Z,9.00
2019-03-28T08:50:44.718Z,9.10
2019-03-28T08:53:12.430Z,9.10
2019-03-28T08:55:40.208Z,9.20
2019-03-28T08:58:07.965Z,9.20
2019-03-28T09:00:51.092Z,9.30
2019-03-28T09:03:07.299Z,9.30
2019-03-28T09:05:34.940Z,9.30
2019-03-28T09:08:02.712Z,9.40
2019-03-28T09:10:30.416Z,9.50
2019-03-28T09:12:58.629Z,9.60
2019-03-28T09:15:26.698Z,9.70
2019-03-28T09:17:54.351Z,9.70
2019-03-28T09:20:22.020Z,9.80
2019-03-28T09:22:50.104Z,9.80
2019-03-28T09:25:17.765Z,9.70
2019-03-28T09:27:45.411Z,9.80
2019-03-28T09:30:15.359Z,9.90
2019-03-28T09:32:42.967Z,9.80
2019-03-28T09:35:14.230Z,9.80
2019-03-28T09:37:42.110Z,9.80
2019-03-28T09:40:10.171Z,9.80
2019-03-28T09:42:37.727Z,9.80
2019-03-28T09:45:05.704Z,9.80
2019-03-28T09:47:33.331Z,9.90
2019-03-28T09:50:01.450Z,10.00
2019-03-28T09:52:29.324Z,10.00
2019-03-28T09:54:56.869Z,10.10
2019-03-28T09:57:24.430Z,10.20
2019-03-28T09:59:52.004Z,10.30
2019-03-28T10:02:21.911Z,10.40
2019-03-28T10:04:50.047Z,10.40
2019-03-28T10:07:17.574Z,10.50
2019-03-28T10:09:45.637Z,10.50
2019-03-28T10:12:13.288Z,10.60
2019-03-28T10:14:40.958Z,10.60
2019-03-28T10:17:08.604Z,10.60
2019-03-28T10:19:36.727Z,10.60
2019-03-28T10:22:04.459Z,10.70
2019-03-28T10:24:34.263Z,10.70
2019-03-28T10:27:02.009Z,10.60
2019-03-28T10:29:29.927Z,10.70
2019-03-28T10:31:57.973Z,10.60
2019-03-28T10:34:25.571Z,10.70
2019-03-28T10:36:53.816Z,10.80
2019-03-28T10:39:21.539Z,10.80
2019-03-28T10:41:49.175Z,10.90
2019-03-28T10:44:17.764Z,11.10
2019-03-28T10:46:45.387Z,11.10
2019-03-28T10:49:12.994Z,11.20
2019-03-28T10:51:40.528Z,11.40
2019-03-28T10:54:19.365Z,11.50
2019-03-28T10:56:50.732Z,11.60
2019-03-28T10:59:07.100Z,11.60
2019-03-28T11:01:48.073Z,11.60
2019-03-28T11:04:04.325Z,11.60
2019-03-28T11:06:32.511Z,11.70
2019-03-28T11:09:00.257Z,11.80
2019-03-28T11:11:27.949Z,11.90
2019-03-28T11:13:55.887Z,11.80
2019-03-28T11:16:23.572Z,12.00
2019-03-28T11:18:51.316Z,12.00
2019-03-28T11:21:18.997Z,12.10
2019-03-28T11:23:46.649Z,12.20
2019-03-28T11:26:14.268Z,12.20
2019-03-28T11:28:42.265Z,12.10
2019-03-28T11:31:10.446Z,12.00
2019-03-28T11:33:38.430Z,12.00
2019-03-28T11:36:06.244Z,11.90
2019-03-28T11:38:33.861Z,12.00
2019-03-28T11:41:01.563Z,12.10
2019-03-28T11:43:29.508Z,12.00
2019-03-28T11:45:57.240Z,12.00
2019-03-28T11:48:24.807Z,12.10
2019-03-28T11:50:52.474Z,12.10
2019-03-28T11:53:20.615Z,12.10
2019-03-28T11:55:48.963Z,12.10
2019-03-28T11:58:16.892Z,12.10
2019-03-28T12:00:44.667Z,12.10
2019-03-28T12:03:12.622Z,12.00
2019-03-28T12:05:40.220Z,12.00
2019-03-28T12:08:08.102Z,12.00
2019-03-28T12:10:35.756Z,11.90
2019-03-28T12:13:03.581Z,11.80
2019-03-28T12:15:31.206Z,11.80
2019-03-28T12:17:59.169Z,11.70
2019-03-28T12:20:27.114Z,11.70
2019-03-28T12:22:56.203Z,11.50
2019-03-28T12:25:24.014Z,11.40
2019-03-28T12:27:51.686Z,11.30
2019-03-28T12:30:20.399Z,11.40
2019-03-28T12:32:47.931Z,11.30
2019-03-28T12:35:16.594Z,11.20
2019-03-28T12:37:44.208Z,11.30
2019-03-28T12:40:12.555Z,11.30
2019-03-28T12:42:40.547Z,11.30
2019-03-28T12:45:09.613Z,11.30
2019-03-28T12:47:42.677Z,11.30
2019-03-28T12:50:09.520Z,11.30
2019-03-28T12:52:37.323Z,11.30
2019-03-28T12:55:05.211Z,11.30
2019-03-28T12:57:33.425Z,11.30
2019-03-28T13:00:01.066Z,11.30
2019-03-28T13:02:31.970Z,11.30
2019-03-28T13:04:58.429Z,11.30
2019-03-28T13:07:26.115Z,11.30
2019-03-28T13:09:53.756Z,11.30
2019-03-28T13:12:21.354Z,11.40
2019-03-28T13:14:49.279Z,11.50
2019-03-28T13:17:16.815Z,11.60
2019-03-28T13:19:44.599Z,11.60
2019-03-28T13:22:12.308Z,11.70
2019-03-28T13:24:40.736Z,11.70
2019-03-28T13:27:08.372Z,11.70
2019-03-28T13:29:35.972Z,11.80
2019-03-28T13:32:03.572Z,11.90
2019-03-28T13:34:31.083Z,12.00
2019-03-28T13:36:59.206Z,12.00
2019-03-28T13:39:26.888Z,12.00
2019-03-28T13:41:54.517Z,12.10
2019-03-28T13:44:22.718Z,12.20
2019-03-28T13:46:50.951Z,12.20
2019-03-28T13:49:18.486Z,12.20
2019-03-28T13:51:46.111Z,12.20
2019-03-28T13:54:14.067Z,12.20
2019-03-28T13:56:41.565Z,12.10
2019-03-28T13:59:09.191Z,12.10
2019-03-28T14:01:37.026Z,12.00
2019-03-28T14:04:04.542Z,12.00
2019-03-28T14:06:32.191Z,11.90
2019-03-28T14:08:59.872Z,11.90
2019-03-28T14:11:27.883Z,11.70
2019-03-28T14:13:55.438Z,11.80
2019-03-28T14:16:23.129Z,11.80
2019-03-28T14:18:51.586Z,11.80
2019-03-28T14:21:20.819Z,11.80
2019-03-28T14:23:48.631Z,11.90
2019-03-28T14:26:16.585Z,12.00
2019-03-28T14:28:44.205Z,12.10
2019-03-28T14:31:11.712Z,12.10
2019-03-28T14:33:39.275Z,12.10
2019-03-28T14:36:06.838Z,12.10
2019-03-28T14:38:37.305Z,12.00
2019-03-28T14:41:03.846Z,12.00
2019-03-28T14:43:31.394Z,12.00
2019-03-28T14:45:59.047Z,12.00
2019-03-28T14:48:26.569Z,12.00
2019-03-28T14:50:54.480Z,12.00
2019-03-28T14:53:22.433Z,12.00
2019-03-28T14:55:50.623Z,12.00
2019-03-28T14:58:21.832Z,12.00
2019-03-28T15:00:50.682Z,11.90
2019-03-28T15:03:27.202Z,11.80
2019-03-28T15:05:48.160Z,11.60
2019-03-28T15:08:15.933Z,11.60
2019-03-28T15:10:43.527Z,11.50
2019-03-28T15:13:11.658Z,11.50
2019-03-28T15:15:39.467Z,11.40
2019-03-28T15:18:07.397Z,11.40
2019-03-28T15:20:34.942Z,11.40
2019-03-28T15:23:02.956Z,11.50
2019-03-28T15:25:30.699Z,11.60
2019-03-28T15:27:58.427Z,11.70
2019-03-28T15:30:26.400Z,11.70
2019-03-28T15:32:53.969Z,11.80
2019-03-28T15:35:23.190Z,11.70
2019-03-28T15:37:50.987Z,11.70
2019-03-28T15:40:18.686Z,11.80
2019-03-28T15:42:47.186Z,11.90
2019-03-28T15:45:15.312Z,11.80
2019-03-28T15:47:43.881Z,11.80
2019-03-28T15:50:11.512Z,11.90
2019-03-28T15:52:39.285Z,11.90
2019-03-28T15:55:07.640Z,12.00
2019-03-28T15:57:35.763Z,12.00
2019-03-28T16:00:05.283Z,12.00
2019-03-28T16:02:33.880Z,12.00
2019-03-28T16:05:01.653Z,11.90
2019-03-28T16:07:29.698Z,11.90
2019-03-28T16:09:57.385Z,11.90
2019-03-28T16:12:24.998Z,11.90
2019-03-28T16:14:52.737Z,11.90
2019-03-28T16:17:20.363Z,11.90
2019-03-28T16:20:02.239Z,11.90
2019-03-28T16:22:30.106Z,11.80
2019-03-28T16:24:58.345Z,11.90
2019-03-28T16:27:25.876Z,11.90
2019-03-28T16:29:54.499Z,11.80
2019-03-28T16:32:24.594Z,11.90
2019-03-28T16:34:52.211Z,11.80
2019-03-28T16:37:20.227Z,11.80
2019-03-28T16:39:49.986Z,11.70
2019-03-28T16:42:18.650Z,11.70
2019-03-28T16:44:46.273Z,11.70
2019-03-28T16:47:13.910Z,11.70
2019-03-28T16:49:42.353Z,11.60
2019-03-28T16:52:09.932Z,11.60
2019-03-28T16:54:37.733Z,11.60
2019-03-28T16:57:05.755Z,11.60
2019-03-28T16:59:33.353Z,11.60
2019-03-28T17:02:01.133Z,11.60
2019-03-28T17:04:28.996Z,11.60
2019-03-28T17:06:56.624Z,11.60
2019-03-28T17:09:25.065Z,11.50
2019-03-28T17:11:53.111Z,11.50
2019-03-28T17:14:21.116Z,11.40
2019-03-28T17:16:49.258Z,11.40
2019-03-28T17:19:17.150Z,11.30
2019-03-28T17:21:45.424Z,11.30
2019-03-28T17:24:13.602Z,11.30
2019-03-28T17:26:41.252Z,11.30
2019-03-28T17:29:09.439Z,11.30
2019-03-28T17:31:37.324Z,11.20
2019-03-28T17:34:05.016Z,11.30
2019-03-28T17:36:33.537Z,11.30
2019-03-28T17:39:01.645Z,11.20
2019-03-28T17:41:31.873Z,11.20
2019-03-28T17:44:00.072Z,11.10
2019-03-28T17:46:27.836Z,11.10
2019-03-28T17:48:57.653Z,11.10
2019-03-28T17:51:25.197Z,11.10
2019-03-28T17:53:55.971Z,11.00
2019-03-28T17:56:23.049Z,11.00
2019-03-28T17:58:50.894Z,11.00
2019-03-28T18:01:19.161Z,11.00
2019-03-28T18:03:46.925Z,11.00
2019-03-28T18:06:14.864Z,11.00
2019-03-28T18:08:43.038Z,11.00
2019-03-28T18:11:10.806Z,11.00
2019-03-28T18:13:38.444Z,11.00
2019-03-28T18:16:06.237Z,11.00
2019-03-28T18:18:33.891Z,10.90
2019-03-28T18:21:01.669Z,10.90
2019-03-28T18:23:29.743Z,10.90
2019-03-28T18:25:57.418Z,10.90
2019-03-28T18:28:25.087Z,10.90
2019-03-28T18:30:52.817Z,10.90
2019-03-28T18:33:20.569Z,11.00
2019-03-28T18:35:48.158Z,11.00
2019-03-28T18:38:15.812Z,11.00
2019-03-28T18:40:43.341Z,10.90
2019-03-28T18:43:11.329Z,10.90
2019-03-28T18:45:39.037Z,10.90
2019-03-28T18:48:09.048Z,10.90
2019-03-28T18:50:36.855Z,11.00
2019-03-28T18:53:04.745Z,10.90
2019-03-28T18:55:32.490Z,10.90
2019-03-28T18:58:00.339Z,10.90
2019-03-28T19:00:28.448Z,11.00
2019-03-28T19:02:56.184Z,10.90
2019-03-28T19:05:23.926Z,10.90
2019-03-28T19:07:51.748Z,10.90
2019-03-28T19:10:19.464Z,10.90
2019-03-28T19:12:47.930Z,10.90
2019-03-28T19:15:16.119Z,10.90
2019-03-28T19:17:44.044Z,10.90
2019-03-28T19:20:12.659Z,10.90
2019-03-28T19:22:40.794Z,10.90
2019-03-28T19:25:09.408Z,10.90
2019-03-28T19:27:37.349Z,10.90
2019-03-28T19:30:08.401Z,10.90
2019-03-28T19:32:36.319Z,10.90
2019-03-28T19:35:05.135Z,10.90
2019-03-28T19:37:33.459Z,10.90
2019-03-28T19:40:02.864Z,10.90
2019-03-28T19:42:31.636Z,10.90
2019-03-28T19:44:59.498Z,10.90
2019-03-28T19:47:28.506Z,10.90
2019-03-28T19:49:56.441Z,10.80
2019-03-28T19:52:25.891Z,10.80
2019-03-28T19:54:53.821Z,10.80
2019-03-28T19:57:21.572Z,10.80
2019-03-28T19:59:49.195Z,10.80
2019-03-28T20:02:17.079Z,10.80
2019-03-28T20:04:44.666Z,10.80
2019-03-28T20:07:21.490Z,10.70
2019-03-28T20:09:41.974Z,10.70
2019-03-28T20:12:09.728Z,10.70
2019-03-28T20:14:37.264Z,10.70
2019-03-28T20:17:05.001Z,10.70
2019-03-28T20:19:32.962Z,10.70
2019-03-28T20:22:00.925Z,10.70
2019-03-28T20:24:28.646Z,10.70
2019-03-28T20:26:56.837Z,10.70
2019-03-28T20:29:24.464Z,10.70
2019-03-28T20:31:52.146Z,10.70
2019-03-28T20:34:21.301Z,10.70
2019-03-28T20:36:52.571Z,10.70
2019-03-28T20:39:19.619Z,10.70
2019-03-28T20:41:47.663Z,10.70
2019-03-28T20:44:15.341Z,10.70
2019-03-28T20:46:42.922Z,10.80
2019-03-28T20:49:10.582Z,10.70
2019-03-28T20:51:38.718Z,10.70
2019-03-28T20:54:07.910Z,10.70
2019-03-28T20:56:37.255Z,10.70
2019-03-28T20:59:05.012Z,10.80
2019-03-28T21:01:32.754Z,10.70
2019-03-28T21:04:01.030Z,10.70
2019-03-28T21:06:28.730Z,10.70
2019-03-28T21:08:56.563Z,10.70
2019-03-28T21:11:25.835Z,10.70
2019-03-28T21:13:54.889Z,10.60
2019-03-28T21:16:22.631Z,10.60
2019-03-28T21:18:50.211Z,10.60
2019-03-28T21:21:17.839Z,10.60
2019-03-28T21:23:45.717Z,10.60
2019-03-28T21:26:13.555Z,10.60
2019-03-28T21:28:47.240Z,10.50
2019-03-28T21:31:10.965Z,10.50
2019-03-28T21:33:38.884Z,10.60
2019-03-28T21:36:06.758Z,10.50
2019-03-28T21:38:34.319Z,10.50
2019-03-28T21:41:02.017Z,10.50
2019-03-28T21:43:30.826Z,10.50
2019-03-28T21:45:58.727Z,10.50
2019-03-28T21:48:26.817Z,10.50
2019-03-28T21:50:55.019Z,10.50
2019-03-28T21:53:22.671Z,10.50
2019-03-28T21:55:55.331Z,10.50
2019-03-28T21:58:22.456Z,10.40
2019-03-28T22:00:50.790Z,10.40
2019-03-28T22:03:19.765Z,10.50
2019-03-28T22:05:47.814Z,10.50
2019-03-28T22:08:16.187Z,10.50
2019-03-28T22:10:44.429Z,10.50
2019-03-28T22:13:13.243Z,10.50
2019-03-28T22:15:41.386Z,10.50
2019-03-28T22:18:09.186Z,10.50
2019-03-28T22:20:36.790Z,10.50
2019-03-28T22:23:04.455Z,10.50
2019-03-28T22:25:32.066Z,10.40
2019-03-28T22:28:00.146Z,10.50
2019-03-28T22:30:27.911Z,10.50
2019-03-28T22:32:55.977Z,10.50
2019-03-28T22:35:24.178Z,10.50
2019-03-28T22:37:52.094Z,10.50
2019-03-28T22:40:20.195Z,10.50
2019-03-28T22:42:48.249Z,10.60
2019-03-28T22:45:15.969Z,10.60
2019-03-28T22:47:43.566Z,10.50
2019-03-28T22:50:11.643Z,10.50
2019-03-28T22:52:39.704Z,10.50
2019-03-28T22:55:08.418Z,10.50
2019-03-28T22:57:36.084Z,10.50
2019-03-28T23:00:06.541Z,10.40
2019-03-28T23:02:36.701Z,10.40
2019-03-28T23:05:07.130Z,10.40
2019-03-28T23:07:34.771Z,10.40
2019-03-28T23:10:02.487Z,10.40
2019-03-28T23:12:30.587Z,10.40
2019-03-28T23:14:58.818Z,10.50
2019-03-28T23:17:27.210Z,10.40
2019-03-28T23:19:55.078Z,10.40
2019-03-28T23:22:22.609Z,10.50
2019-03-28T23:24:52.381Z,10.50
2019-03-28T23:27:20.519Z,10.50
2019-03-28T23:29:49.761Z,10.40
2019-03-28T23:32:17.460Z,10.40
2019-03-28T23:34:46.075Z,10.40
2019-03-28T23:37:24.121Z,10.40
2019-03-28T23:39:43.943Z,10.40
2019-03-28T23:42:11.908Z,10.40
2019-03-28T23:44:39.844Z,10.40
2019-03-28T23:47:09.271Z,10.40
2019-03-28T23:49:38.738Z,10.30
2019-03-28T23:52:06.971Z,10.40
2019-03-28T23:54:35.227Z,10.40
2019-03-28T23:57:03.831Z,10.40
2019-03-28T23:59:31.828Z,10.40
